Shin Puropan Maru — JG5508 — position and weather

sailwx.info

Track history (hours):
 
Tides and Currents Weather Stations Pressure Air Temp Water Temp Dewpoint Dewpoint Depression Visibility Wind Speed Wind Dir Waves Ship Positions

Shin Puropan Maru

Last reported at 2014-Jul-24 06:08 UTC. Time now 2014-Jul-24 14:39 UTC.
Position N 33°59' E 135°01'.

Length 66 m; draft 3.7 m.

Type: Ship (hazmat cat A). MMSI: 431100348.

Date/timePositionNaut miles runAvg speedWind from/ knotsBaromVisibWave heightAir tempDewpointWater temp
2014-Jul-24 06:08N 33°59' E 135°01'911.6
2014-Jul-24 05:23N 34°08' E 134°60'2212.1
2014-Jul-24 03:34N 34°28' E 135°10'1312.5
2014-Jul-24 02:33N 34°36' E 135°22'3 2.4
2014-Jul-24 01:11N 34°34' E 135°26'0 0.0
2014-Jul-24 00:29N 34°34' E 135°26'1 0.5
2014-Jul-23 22:34N 34°35' E 135°25'2 0.9
2014-Jul-23 20:33N 34°36' E 135°23'0 0.0
2014-Jul-23 19:33N 34°36' E 135°23'0 0.0
2014-Jul-23 18:33N 34°36' E 135°23'0 0.0
2014-Jul-23 17:15N 34°36' E 135°23'0 0.0
2014-Jul-23 16:27N 34°36' E 135°23'0 0.0
2014-Jul-23 15:09N 34°36' E 135°23'0 0.0
2014-Jul-23 14:33N 34°36' E 135°23'0 0.0
2014-Jul-23 13:33N 34°36' E 135°23'0 0.0
2014-Jul-23 11:27N 34°36' E 135°23'0 0.0
2014-Jul-23 09:27N 34°36' E 135°23'8 9.0
2014-Jul-23 08:32N 34°30' E 135°15'1212.7
2014-Jul-23 07:34N 34°22' E 135°04'1212.1
2014-Jul-23 06:33N 34°10' E 134°60'207 9.8
2014-Jul-22 09:30N 34°46' E 139°07'1111.4
2014-Jul-22 08:32N 34°54' E 139°16'10 9.9
2014-Jul-22 07:33N 34°59' E 139°26'10 9.6
2014-Jul-22 06:33N 35°05' E 139°36'1111.4
2014-Jul-22 05:33N 35°12' E 139°46'1110.9
2014-Jul-22 04:33N 35°23' E 139°42'1111.1
2014-Jul-22 03:33N 35°30' E 139°53'1010.5
2014-Jul-22 02:34N 35°33' E 140°05'0 0.1
2014-Jul-22 01:32N 35°33' E 140°05'0 0.0
2014-Jul-22 00:32N 35°33' E 140°05'0 0.0
2014-Jul-21 23:32N 35°33' E 140°05'0 0.0
2014-Jul-21 22:33N 35°33' E 140°05'6 6.4
2014-Jul-21 21:33N 35°30' E 139°58'2 2.4
2014-Jul-21 20:33N 35°29' E 139°55'0 0.0
2014-Jul-21 20:15N 35°29' E 139°55'0 0.0
2014-Jul-21 19:33N 35°29' E 139°55'0 0.0
2014-Jul-21 18:33N 35°29' E 139°55'0 0.0
2014-Jul-21 17:33N 35°29' E 139°55'0 0.0
2014-Jul-21 16:24N 35°29' E 139°55'0 0.0
2014-Jul-21 15:24N 35°29' E 139°55'0 0.0
2014-Jul-21 14:33N 35°29' E 139°55'0 0.0
2014-Jul-21 13:33N 35°29' E 139°55'0 0.0
2014-Jul-21 12:30N 35°29' E 139°55'0 0.0
2014-Jul-21 11:24N 35°29' E 139°55'0 0.0
2014-Jul-21 10:33N 35°29' E 139°55'0 0.0
2014-Jul-21 09:33N 35°29' E 139°55'0 0.0
2014-Jul-21 08:27N 35°29' E 139°55'7 8.3
2014-Jul-21 07:34N 35°25' E 139°48'1110.9
2014-Jul-21 06:34N 35°14' E 139°47'1211.8
2014-Jul-21 05:34N 35°03' E 139°41'23910.7
2014-Jul-20 07:07N 34°02' E 135°00'712.3
2014-Jul-20 06:33N 34°09' E 134°59'2210.9
2014-Jul-20 04:33N 34°29' E 135°10'1010.4
2014-Jul-20 03:33N 34°36' E 135°19'0 0.3
2014-Jul-20 02:33N 34°36' E 135°20'5 4.3
2014-Jul-20 01:21N 34°34' E 135°26'0 0.0
2014-Jul-20 00:03N 34°34' E 135°26'1 0.6
2014-Jul-19 22:33N 34°35' E 135°25'2 1.5
2014-Jul-19 21:32N 34°35' E 135°23'0 0.0
2014-Jul-19 20:32N 34°35' E 135°23'0 0.0
2014-Jul-19 19:26N 34°35' E 135°23'0 0.0
2014-Jul-19 18:32N 34°35' E 135°23'0 0.0
2014-Jul-19 16:26N 34°35' E 135°23'3 3.0
2014-Jul-19 15:33N 34°34' E 135°20'1212.0
2014-Jul-19 14:33N 34°26' E 135°10'1312.0
2014-Jul-19 13:29N 34°17' E 134°59'1111.5
2014-Jul-19 12:33N 34°06' E 135°00'211 9.8
2014-Jul-18 15:05N 34°49' E 139°11'1010.6
2014-Jul-18 14:10N 34°56' E 139°19'7 9.8
2014-Jul-18 13:24N 34°59' E 139°27'911.0
2014-Jul-18 12:33N 35°05' E 139°36'1212.0
2014-Jul-18 11:33N 35°14' E 139°46'1111.2
2014-Jul-18 10:33N 35°25' E 139°44'1212.1
2014-Jul-18 09:33N 35°31' E 139°56'7 7.2
2014-Jul-18 08:33N 35°33' E 140°05'0 0.0
2014-Jul-18 07:34N 35°33' E 140°05'0 0.0
2014-Jul-18 06:34N 35°33' E 140°05'0 0.0
2014-Jul-18 05:34N 35°33' E 140°05'2 2.2
2014-Jul-18 04:33N 35°34' E 140°03'2 2.0
2014-Jul-18 03:33N 35°34' E 140°00'5 5.4
2014-Jul-18 02:34N 35°34' E 140°07'0 0.0
2014-Jul-18 01:33N 35°34' E 140°07'0 0.0
2014-Jul-18 00:33N 35°34' E 140°07'0 0.0
2014-Jul-17 23:33N 35°34' E 140°07'0 0.1
2014-Jul-17 22:33N 35°34' E 140°07'1 1.5
2014-Jul-17 21:32N 35°33' E 140°05'0 0.0
2014-Jul-17 20:32N 35°33' E 140°05'0 0.0
2014-Jul-17 19:32N 35°33' E 140°05'0 0.0
2014-Jul-17 18:32N 35°33' E 140°05'0 0.0
2014-Jul-17 17:26N 35°33' E 140°05'0 0.0
2014-Jul-17 16:29N 35°33' E 140°05'0 0.0
2014-Jul-17 15:32N 35°33' E 140°05'0 0.0
2014-Jul-17 14:32N 35°33' E 140°05'0 0.0
2014-Jul-17 13:32N 35°33' E 140°05'0 0.0
2014-Jul-17 12:29N 35°33' E 140°05'0 0.0
2014-Jul-17 11:26N 35°33' E 140°05'0 0.0
2014-Jul-17 10:32N 35°33' E 140°05'0 0.0
2014-Jul-17 09:32N 35°33' E 140°05'0 0.0
2014-Jul-17 08:32N 35°34' E 140°05'0 0.0
2014-Jul-17 07:32N 35°33' E 140°05'0 0.0
2014-Jul-17 06:32N 35°34' E 140°05'0 0.0
2014-Jul-17 05:29N 35°34' E 140°05'0 0.0
2014-Jul-17 04:32N 35°34' E 140°05'1 0.5
2014-Jul-17 03:33N 35°33' E 140°05'0 0.5
2014-Jul-17 02:32N 35°33' E 140°05'0 0.0
2014-Jul-17 01:32N 35°33' E 140°05'0 0.0
2014-Jul-17 00:29N 35°33' E 140°05'0 0.0
2014-Jul-16 23:32N 35°33' E 140°05'5 4.9
2014-Jul-16 22:33N 35°32' E 139°59'1212.0
2014-Jul-16 21:33N 35°25' E 139°47'1110.9
2014-Jul-16 20:33N 35°14' E 139°47'1211.7
2014-Jul-16 19:33N 35°04' E 139°41'5913.1
2014-Jul-16 15:04N 34°34' E 138°39'34 1.3
2014-Jul-15 13:31N 34°52' E 139°13'1111.7
2014-Jul-15 12:33N 34°58' E 139°24'1211.8
2014-Jul-15 11:33N 35°05' E 139°36'1111.6
2014-Jul-15 10:33N 35°13' E 139°46'1111.3
2014-Jul-15 09:34N 35°24' E 139°43'1211.6
2014-Jul-15 08:33N 35°31' E 139°55'9 8.7
2014-Jul-15 07:33N 35°33' E 140°05'0 0.0
2014-Jul-15 06:33N 35°33' E 140°05'0 0.0
2014-Jul-15 05:33N 35°33' E 140°05'0 0.0
2014-Jul-15 04:30N 35°33' E 140°05'4 4.2
2014-Jul-15 03:33N 35°32' E 140°00'1211.9
2014-Jul-15 02:33N 35°26' E 139°48'1010.4
2014-Jul-15 01:34N 35°15' E 139°47'1211.6
2014-Jul-15 00:33N 35°04' E 139°43'  
Track history (hours):
 
Tides and Currents Weather Stations Pressure Air Temp Water Temp Dewpoint Dewpoint Depression Visibility Wind Speed Wind Dir Waves Ship Positions

Shin Puropan Maru

Last reported at 2014-Jul-24 06:08 UTC. Time now 2014-Jul-24 14:39 UTC.
Position N 33°59' E 135°01'.

Length 66 m; draft 3.7 m.

Type: Ship (hazmat cat A). MMSI: 431100348.

Date/timePositionNaut miles runAvg speedWind from/ knotsBaromVisibWave heightAir tempDewpointWater temp
2014-Jul-24 06:08N 33°59' E 135°01'911.6
2014-Jul-24 05:23N 34°08' E 134°60'2212.1
2014-Jul-24 03:34N 34°28' E 135°10'1312.5
2014-Jul-24 02:33N 34°36' E 135°22'3 2.4
2014-Jul-24 01:11N 34°34' E 135°26'0 0.0
2014-Jul-24 00:29N 34°34' E 135°26'1 0.5
2014-Jul-23 22:34N 34°35' E 135°25'2 0.9
2014-Jul-23 20:33N 34°36' E 135°23'0 0.0
2014-Jul-23 19:33N 34°36' E 135°23'0 0.0
2014-Jul-23 18:33N 34°36' E 135°23'0 0.0
2014-Jul-23 17:15N 34°36' E 135°23'0 0.0
2014-Jul-23 16:27N 34°36' E 135°23'0 0.0
2014-Jul-23 15:09N 34°36' E 135°23'0 0.0
2014-Jul-23 14:33N 34°36' E 135°23'0 0.0
2014-Jul-23 13:33N 34°36' E 135°23'0 0.0
2014-Jul-23 11:27N 34°36' E 135°23'0 0.0
2014-Jul-23 09:27N 34°36' E 135°23'8 9.0
2014-Jul-23 08:32N 34°30' E 135°15'1212.7
2014-Jul-23 07:34N 34°22' E 135°04'1212.1
2014-Jul-23 06:33N 34°10' E 134°60'207 9.8
2014-Jul-22 09:30N 34°46' E 139°07'1111.4
2014-Jul-22 08:32N 34°54' E 139°16'10 9.9
2014-Jul-22 07:33N 34°59' E 139°26'10 9.6
2014-Jul-22 06:33N 35°05' E 139°36'1111.4
2014-Jul-22 05:33N 35°12' E 139°46'1110.9
2014-Jul-22 04:33N 35°23' E 139°42'1111.1
2014-Jul-22 03:33N 35°30' E 139°53'1010.5
2014-Jul-22 02:34N 35°33' E 140°05'0 0.1
2014-Jul-22 01:32N 35°33' E 140°05'0 0.0
2014-Jul-22 00:32N 35°33' E 140°05'0 0.0
2014-Jul-21 23:32N 35°33' E 140°05'0 0.0
2014-Jul-21 22:33N 35°33' E 140°05'6 6.4
2014-Jul-21 21:33N 35°30' E 139°58'2 2.4
2014-Jul-21 20:33N 35°29' E 139°55'0 0.0
2014-Jul-21 20:15N 35°29' E 139°55'0 0.0
2014-Jul-21 19:33N 35°29' E 139°55'0 0.0
2014-Jul-21 18:33N 35°29' E 139°55'0 0.0
2014-Jul-21 17:33N 35°29' E 139°55'0 0.0
2014-Jul-21 16:24N 35°29' E 139°55'0 0.0
2014-Jul-21 15:24N 35°29' E 139°55'0 0.0
2014-Jul-21 14:33N 35°29' E 139°55'0 0.0
2014-Jul-21 13:33N 35°29' E 139°55'0 0.0
2014-Jul-21 12:30N 35°29' E 139°55'0 0.0
2014-Jul-21 11:24N 35°29' E 139°55'0 0.0
2014-Jul-21 10:33N 35°29' E 139°55'0 0.0
2014-Jul-21 09:33N 35°29' E 139°55'0 0.0
2014-Jul-21 08:27N 35°29' E 139°55'7 8.3
2014-Jul-21 07:34N 35°25' E 139°48'1110.9
2014-Jul-21 06:34N 35°14' E 139°47'1211.8
2014-Jul-21 05:34N 35°03' E 139°41'23910.7
2014-Jul-20 07:07N 34°02' E 135°00'712.3
2014-Jul-20 06:33N 34°09' E 134°59'2210.9
2014-Jul-20 04:33N 34°29' E 135°10'1010.4
2014-Jul-20 03:33N 34°36' E 135°19'0 0.3
2014-Jul-20 02:33N 34°36' E 135°20'5 4.3
2014-Jul-20 01:21N 34°34' E 135°26'0 0.0
2014-Jul-20 00:03N 34°34' E 135°26'1 0.6
2014-Jul-19 22:33N 34°35' E 135°25'2 1.5
2014-Jul-19 21:32N 34°35' E 135°23'0 0.0
2014-Jul-19 20:32N 34°35' E 135°23'0 0.0
2014-Jul-19 19:26N 34°35' E 135°23'0 0.0
2014-Jul-19 18:32N 34°35' E 135°23'0 0.0
2014-Jul-19 16:26N 34°35' E 135°23'3 3.0
2014-Jul-19 15:33N 34°34' E 135°20'1212.0
2014-Jul-19 14:33N 34°26' E 135°10'1312.0
2014-Jul-19 13:29N 34°17' E 134°59'1111.5
2014-Jul-19 12:33N 34°06' E 135°00'211 9.8
2014-Jul-18 15:05N 34°49' E 139°11'1010.6
2014-Jul-18 14:10N 34°56' E 139°19'7 9.8
2014-Jul-18 13:24N 34°59' E 139°27'911.0
2014-Jul-18 12:33N 35°05' E 139°36'1212.0
2014-Jul-18 11:33N 35°14' E 139°46'1111.2
2014-Jul-18 10:33N 35°25' E 139°44'1212.1
2014-Jul-18 09:33N 35°31' E 139°56'7 7.2
2014-Jul-18 08:33N 35°33' E 140°05'0 0.0
2014-Jul-18 07:34N 35°33' E 140°05'0 0.0
2014-Jul-18 06:34N 35°33' E 140°05'0 0.0
2014-Jul-18 05:34N 35°33' E 140°05'2 2.2
2014-Jul-18 04:33N 35°34' E 140°03'2 2.0
2014-Jul-18 03:33N 35°34' E 140°00'5 5.4
2014-Jul-18 02:34N 35°34' E 140°07'0 0.0
2014-Jul-18 01:33N 35°34' E 140°07'0 0.0
2014-Jul-18 00:33N 35°34' E 140°07'0 0.0
2014-Jul-17 23:33N 35°34' E 140°07'0 0.1
2014-Jul-17 22:33N 35°34' E 140°07'1 1.5
2014-Jul-17 21:32N 35°33' E 140°05'0 0.0
2014-Jul-17 20:32N 35°33' E 140°05'0 0.0
2014-Jul-17 19:32N 35°33' E 140°05'0 0.0
2014-Jul-17 18:32N 35°33' E 140°05'0 0.0
2014-Jul-17 17:26N 35°33' E 140°05'0 0.0
2014-Jul-17 16:29N 35°33' E 140°05'0 0.0
2014-Jul-17 15:32N 35°33' E 140°05'0 0.0
2014-Jul-17 14:32N 35°33' E 140°05'0 0.0
2014-Jul-17 13:32N 35°33' E 140°05'0 0.0
2014-Jul-17 12:29N 35°33' E 140°05'0 0.0
2014-Jul-17 11:26N 35°33' E 140°05'0 0.0
2014-Jul-17 10:32N 35°33' E 140°05'0 0.0
2014-Jul-17 09:32N 35°33' E 140°05'0 0.0
2014-Jul-17 08:32N 35°34' E 140°05'0 0.0
2014-Jul-17 07:32N 35°33' E 140°05'0 0.0
2014-Jul-17 06:32N 35°34' E 140°05'0 0.0
2014-Jul-17 05:29N 35°34' E 140°05'0 0.0
2014-Jul-17 04:32N 35°34' E 140°05'1 0.5
2014-Jul-17 03:33N 35°33' E 140°05'0 0.5
2014-Jul-17 02:32N 35°33' E 140°05'0 0.0
2014-Jul-17 01:32N 35°33' E 140°05'0 0.0
2014-Jul-17 00:29N 35°33' E 140°05'0 0.0
2014-Jul-16 23:32N 35°33' E 140°05'5 4.9
2014-Jul-16 22:33N 35°32' E 139°59'1212.0
2014-Jul-16 21:33N 35°25' E 139°47'1110.9
2014-Jul-16 20:33N 35°14' E 139°47'1211.7
2014-Jul-16 19:33N 35°04' E 139°41'5913.1
2014-Jul-16 15:04N 34°34' E 138°39'34 1.3
2014-Jul-15 13:31N 34°52' E 139°13'1111.7
2014-Jul-15 12:33N 34°58' E 139°24'1211.8
2014-Jul-15 11:33N 35°05' E 139°36'1111.6
2014-Jul-15 10:33N 35°13' E 139°46'1111.3
2014-Jul-15 09:34N 35°24' E 139°43'1211.6
2014-Jul-15 08:33N 35°31' E 139°55'9 8.7
2014-Jul-15 07:33N 35°33' E 140°05'0 0.0
2014-Jul-15 06:33N 35°33' E 140°05'0 0.0
2014-Jul-15 05:33N 35°33' E 140°05'0 0.0
2014-Jul-15 04:30N 35°33' E 140°05'4 4.2
2014-Jul-15 03:33N 35°32' E 140°00'1211.9
2014-Jul-15 02:33N 35°26' E 139°48'1010.4
2014-Jul-15 01:34N 35°15' E 139°47'1211.6
2014-Jul-15 00:33N 35°04' E 139°43'  

Dump ship's entire track history